createdAt,value
2023-03-06T00:01:17.743Z,2.03
2023-03-06T00:06:20.153Z,1.94
2023-03-06T00:11:22.733Z,2.12
2023-03-06T00:16:26.322Z,2.38
2023-03-06T00:21:34.500Z,2.42
2023-03-06T00:26:37.569Z,2.50
2023-03-06T00:31:47.270Z,2.71
2023-03-06T00:36:55.118Z,2.80
2023-03-06T00:41:58.096Z,2.78
2023-03-06T00:47:00.772Z,2.88
2023-03-06T00:52:04.064Z,2.78
2023-03-06T00:57:12.447Z,2.82
2023-03-06T01:02:15.056Z,2.72
2023-03-06T01:07:17.715Z,2.67
2023-03-06T01:12:22.794Z,2.64
2023-03-06T01:17:26.825Z,2.57
2023-03-06T01:22:29.362Z,2.44
2023-03-06T01:27:31.913Z,2.33
2023-03-06T01:32:34.853Z,2.25
2023-03-06T01:37:38.242Z,2.23
2023-03-06T01:42:48.672Z,2.43
2023-03-06T01:47:51.265Z,2.68
2023-03-06T01:52:58.743Z,2.71
2023-03-06T01:58:07.170Z,2.60
2023-03-06T02:03:14.418Z,2.58
2023-03-06T02:08:19.675Z,2.65
2023-03-06T02:13:22.293Z,2.65
2023-03-06T02:18:28.993Z,2.51
2023-03-06T02:23:54.091Z,2.36
2023-03-06T02:28:58.719Z,2.35
2023-03-06T02:34:05.332Z,2.65
2023-03-06T02:39:09.488Z,2.66
2023-03-06T02:44:13.347Z,2.61
2023-03-06T02:49:15.991Z,2.46
2023-03-06T02:54:18.745Z,2.23
2023-03-06T02:59:21.549Z,2.04
2023-03-06T03:04:24.225Z,1.90
2023-03-06T03:09:27.200Z,1.79
2023-03-06T03:14:30.590Z,1.72
2023-03-06T03:19:33.375Z,1.82
2023-03-06T03:24:36.082Z,1.67
2023-03-06T03:29:39.567Z,1.49
2023-03-06T03:34:42.103Z,1.40
2023-03-06T03:39:44.810Z,1.27
2023-03-06T03:44:48.393Z,1.32
2023-03-06T03:49:52.757Z,1.24
2023-03-06T03:54:57.389Z,1.32
2023-03-06T04:00:01.210Z,1.30
2023-03-06T04:05:34.180Z,1.33
2023-03-06T04:10:42.250Z,1.28
2023-03-06T04:15:51.434Z,1.65
2023-03-06T04:21:00.416Z,2.48
2023-03-06T04:26:28.630Z,3.18
2023-03-06T04:31:31.686Z,3.26
2023-03-06T04:36:37.945Z,3.12
2023-03-06T04:41:46.755Z,3.57
2023-03-06T04:47:12.682Z,4.05
2023-03-06T04:52:15.281Z,4.33
2023-03-06T04:57:18.724Z,4.77
2023-03-06T05:02:40.637Z,5.55
2023-03-06T05:07:54.085Z,6.12
2023-03-06T05:18:45.255Z,5.82
2023-03-06T05:23:59.212Z,5.28
2023-03-06T05:29:01.947Z,5.21
2023-03-06T05:34:04.807Z,4.74
2023-03-06T05:39:07.548Z,4.68
2023-03-06T05:44:14.362Z,4.60
2023-03-06T05:49:17.675Z,4.63
2023-03-06T05:54:27.599Z,4.73
2023-03-06T05:59:31.866Z,4.82
2023-03-06T06:04:35.707Z,4.92
2023-03-06T06:09:38.355Z,5.13
2023-03-06T06:14:41.012Z,5.36
2023-03-06T06:19:43.547Z,5.93
2023-03-06T06:24:46.189Z,6.83
2023-03-06T06:29:52.768Z,6.80
2023-03-06T06:34:58.690Z,6.83
2023-03-06T06:40:01.529Z,7.12
2023-03-06T06:45:06.921Z,7.15
2023-03-06T06:50:13.971Z,7.08
2023-03-06T06:55:16.941Z,7.53
2023-03-06T07:00:20.307Z,7.70
2023-03-06T07:05:22.875Z,7.91
2023-03-06T07:10:26.360Z,7.98
2023-03-06T07:15:31.914Z,8.24
2023-03-06T07:20:37.488Z,8.50
2023-03-06T07:25:41.306Z,8.84
2023-03-06T07:30:51.452Z,9.23
2023-03-06T07:35:58.065Z,9.14
2023-03-06T07:41:00.981Z,8.73
2023-03-06T07:46:13.621Z,8.67
2023-03-06T07:51:22.368Z,8.59
2023-03-06T07:56:37.666Z,8.52
2023-03-06T08:01:40.484Z,8.56
2023-03-06T08:06:43.042Z,8.81
2023-03-06T08:11:46.300Z,9.51
2023-03-06T08:16:50.895Z,10.60
2023-03-06T08:21:53.586Z,11.80
2023-03-06T08:26:57.292Z,11.90
2023-03-06T08:32:19.745Z,12.53
2023-03-06T08:37:26.293Z,12.24
2023-03-06T08:42:28.935Z,14.04
2023-03-06T08:47:31.605Z,15.36
2023-03-06T08:52:40.498Z,15.36
2023-03-06T08:57:43.142Z,16.03
2023-03-06T09:02:49.012Z,15.80
2023-03-06T09:07:52.041Z,16.37
2023-03-06T09:12:56.124Z,17.08
2023-03-06T09:17:59.357Z,17.43
2023-03-06T09:23:14.478Z,17.19
2023-03-06T09:28:24.196Z,18.27
2023-03-06T09:33:28.889Z,18.21
2023-03-06T09:38:32.169Z,17.75
2023-03-06T09:43:44.964Z,15.92
2023-03-06T09:49:14.477Z,14.80
2023-03-06T09:54:20.470Z,14.32
2023-03-06T09:59:27.707Z,14.66
2023-03-06T10:04:50.496Z,14.58
2023-03-06T10:10:04.907Z,15.54
2023-03-06T10:15:27.156Z,16.02
2023-03-06T10:21:19.305Z,16.06
2023-03-06T10:27:11.637Z,14.15
2023-03-06T10:32:47.530Z,13.21
2023-03-06T10:37:51.190Z,12.69
2023-03-06T10:43:05.071Z,13.18
2023-03-06T10:48:20.494Z,13.12
2023-03-06T10:53:31.908Z,13.48
2023-03-06T10:58:37.799Z,13.76
2023-03-06T11:03:41.602Z,13.99
2023-03-06T11:08:45.574Z,13.62
2023-03-06T11:14:01.351Z,13.77
2023-03-06T11:19:07.572Z,13.76
2023-03-06T11:24:27.353Z,13.49
2023-03-06T11:29:30.539Z,13.31
2023-03-06T11:34:50.646Z,12.81
2023-03-06T11:39:59.735Z,12.22
2023-03-06T11:45:13.724Z,11.58
2023-03-06T11:50:45.691Z,11.48
2023-03-06T11:56:10.665Z,10.68
2023-03-06T12:01:37.126Z,10.56
2023-03-06T12:06:46.401Z,10.20
2023-03-06T12:12:41.466Z,9.88
2023-03-06T12:18:07.443Z,9.64
2023-03-06T12:23:50.033Z,9.45
2023-03-06T12:29:12.029Z,9.22
2023-03-06T12:34:34.126Z,8.95
2023-03-06T12:40:16.387Z,8.75
2023-03-06T12:45:39.951Z,8.44
2023-03-06T12:50:46.502Z,8.33
2023-03-06T12:55:53.730Z,8.22
2023-03-06T13:01:20.065Z,8.10
2023-03-06T13:06:45.050Z,7.98
2023-03-06T13:12:48.258Z,7.89
2023-03-06T13:17:54.943Z,7.81
2023-03-06T13:22:58.764Z,7.60
2023-03-06T13:28:05.297Z,7.62
2023-03-06T13:33:42.572Z,7.57
2023-03-06T13:38:45.145Z,7.34
2023-03-06T13:43:49.053Z,7.14
2023-03-06T13:49:09.866Z,7.15
2023-03-06T13:54:22.339Z,7.15
2023-03-06T13:59:40.137Z,7.13
2023-03-06T14:05:03.094Z,6.95
2023-03-06T14:10:14.701Z,6.86
2023-03-06T14:15:41.520Z,6.68
2023-03-06T14:20:45.600Z,6.57
2023-03-06T14:26:02.935Z,6.41
2023-03-06T14:31:07.432Z,6.15
2023-03-06T14:36:20.263Z,6.07
2023-03-06T14:41:35.583Z,5.96
2023-03-06T14:46:39.574Z,5.81
2023-03-06T14:51:45.939Z,5.70
2023-03-06T14:56:54.712Z,5.58
2023-03-06T15:02:05.140Z,5.47
2023-03-06T15:07:12.930Z,5.42
2023-03-06T15:12:21.602Z,5.38
2023-03-06T15:17:29.018Z,5.30
2023-03-06T15:22:41.694Z,5.15
2023-03-06T15:28:28.795Z,4.99
2023-03-06T15:33:31.520Z,4.73
2023-03-06T15:44:22.799Z,4.14
2023-03-06T15:49:40.699Z,4.00
2023-03-06T15:55:05.139Z,3.85
2023-03-06T16:00:38.680Z,3.71
2023-03-06T16:05:42.958Z,3.57
2023-03-06T16:10:48.094Z,3.53
2023-03-06T16:16:04.447Z,3.35
2023-03-06T16:21:12.305Z,3.32
2023-03-06T16:26:33.145Z,3.13
2023-03-06T16:31:49.111Z,3.19
2023-03-06T16:37:18.750Z,3.06
2023-03-06T16:48:31.101Z,2.99
2023-03-06T16:53:39.552Z,2.97
2023-03-06T16:58:43.220Z,2.96
2023-03-06T17:03:46.367Z,2.98
2023-03-06T17:08:50.308Z,2.94
2023-03-06T17:13:56.706Z,2.84
2023-03-06T17:19:00.151Z,2.76
2023-03-06T17:24:08.828Z,2.68
2023-03-06T17:29:12.321Z,2.49
2023-03-06T17:34:14.852Z,2.45
2023-03-06T17:39:17.356Z,2.36
2023-03-06T17:44:20.424Z,2.30
2023-03-06T17:49:25.402Z,2.22
2023-03-06T17:54:30.188Z,2.12
2023-03-06T17:59:34.628Z,2.13
2023-03-06T18:04:37.833Z,1.92
2023-03-06T18:09:43.130Z,1.94
2023-03-06T18:14:45.778Z,1.94
2023-03-06T18:19:48.337Z,1.83
2023-03-06T18:24:51.667Z,1.85
2023-03-06T18:29:55.795Z,1.75
2023-03-06T18:34:58.605Z,1.71
2023-03-06T18:40:01.253Z,1.66
2023-03-06T18:45:05.706Z,1.58
2023-03-06T18:50:08.722Z,1.51
2023-03-06T18:55:11.374Z,1.46
2023-03-06T19:00:15.669Z,1.46
2023-03-06T19:05:18.469Z,1.47
2023-03-06T19:10:21.308Z,1.39
2023-03-06T19:15:23.826Z,1.35
2023-03-06T19:20:27.136Z,1.27
2023-03-06T19:25:29.650Z,1.20
2023-03-06T19:30:33.704Z,1.20
2023-03-06T19:35:36.522Z,1.09
2023-03-06T19:40:39.107Z,1.04
2023-03-06T19:45:45.067Z,0.96
2023-03-06T19:50:47.912Z,0.87
2023-03-06T19:55:50.487Z,0.91
2023-03-06T20:00:52.990Z,0.84
2023-03-06T20:05:55.437Z,0.88
2023-03-06T20:10:57.959Z,0.74
2023-03-06T20:16:03.490Z,0.79
2023-03-06T20:21:06.217Z,0.84
2023-03-06T20:26:12.233Z,0.83
2023-03-06T20:31:21.736Z,0.78
2023-03-06T20:36:29.025Z,0.67
2023-03-06T20:41:32.637Z,0.60
2023-03-06T20:46:35.829Z,0.57
2023-03-06T20:51:39.936Z,0.45
2023-03-06T20:56:46.200Z,0.43
2023-03-06T21:01:49.379Z,0.40
2023-03-06T21:06:53.958Z,0.34
2023-03-06T21:11:56.994Z,0.28
2023-03-06T21:17:01.410Z,0.31
2023-03-06T21:22:04.091Z,0.27
2023-03-06T21:27:07.574Z,0.29
2023-03-06T21:32:10.018Z,0.14
2023-03-06T21:37:12.595Z,0.10
2023-03-06T21:42:15.134Z,0.16
2023-03-06T21:47:17.701Z,0.16
2023-03-06T21:52:20.207Z,0.18
2023-03-06T21:57:22.689Z,0.24
2023-03-06T22:02:25.354Z,0.28
2023-03-06T22:07:28.616Z,0.30
2023-03-06T22:12:31.224Z,0.29
2023-03-06T22:17:33.844Z,0.33
2023-03-06T22:22:36.385Z,0.38
2023-03-06T22:27:38.946Z,0.29
2023-03-06T22:32:41.480Z,0.26
2023-03-06T22:37:44.118Z,0.17
2023-03-06T22:42:46.629Z,0.13
2023-03-06T22:47:49.132Z,0.07
2023-03-06T22:52:51.698Z,0.08
2023-03-06T22:57:54.408Z,0.08
2023-03-06T23:02:56.964Z,0.03
2023-03-06T23:07:59.538Z,0.04
2023-03-06T23:13:01.945Z,0.03
2023-03-06T23:18:23.007Z,0.02
2023-03-06T23:23:48.685Z,0.00
2023-03-06T23:28:51.938Z,0.02
2023-03-06T23:33:56.748Z,-0.01
2023-03-06T23:38:59.342Z,-0.03
2023-03-06T23:44:03.364Z,-0.04
2023-03-06T23:49:07.515Z,0.00
2023-03-06T23:54:10.563Z,0.10
2023-03-06T23:59:13.189Z,0.26
